TAF EHEH
EHEH 081741Z 0818/0924 18005KT CAVOK PROB30 TEMPO 0900/0907 3500 BR MIFG BECMG 0907/0910 21010KT SCT015 BKN025 TEMPO 0909/0916 4500 RADZ SCT008 BKN012 BECMG 0915/0918 FEW015 BKN022=
METAR EHEH
EHEH 082225Z AUTO 15008KT 130V190 9999 NCD 02/01 Q1001 BLU=
EHEH 082155Z AUTO 16008KT 110V210 9999 NCD 02/01 Q1001 BLU NOSIG=
EHEH 082125Z AUTO 15007KT 120V190 9999 NCD 02/01 Q1001 BLU NOSIG=
EHEH 082055Z AUTO 15006KT 9999 BKN250 02/01 Q1000 BLU NOSIG=
EHEH 082025Z AUTO 14005KT 9999 BKN250 02/01 Q1000 BLU NOSIG=
WC EHEH
WS EHEH
WV EHEH